createdAt,value
2022-07-29T00:01:02.079Z,1.88
2022-07-29T00:03:28.608Z,2.03
2022-07-29T00:05:55.285Z,2.03
2022-07-29T00:08:21.821Z,1.83
2022-07-29T00:10:48.586Z,1.98
2022-07-29T00:13:15.170Z,2.20
2022-07-29T00:15:41.805Z,1.80
2022-07-29T00:18:08.447Z,2.95
2022-07-29T00:20:35.089Z,1.85
2022-07-29T00:23:01.600Z,1.95
2022-07-29T00:25:28.209Z,1.92
2022-07-29T00:27:54.728Z,1.80
2022-07-29T00:30:21.405Z,2.25
2022-07-29T00:32:47.906Z,2.13
2022-07-29T00:35:14.489Z,1.45
2022-07-29T00:37:41.119Z,1.60
2022-07-29T00:40:08.523Z,1.38
2022-07-29T00:42:53.220Z,2.10
2022-07-29T00:45:20.503Z,1.50
2022-07-29T00:47:47.632Z,1.88
2022-07-29T00:50:14.705Z,1.90
2022-07-29T00:52:42.629Z,1.45
2022-07-29T00:55:12.923Z,1.75
2022-07-29T00:57:41.155Z,1.98
2022-07-29T01:00:11.119Z,1.60
2022-07-29T01:02:37.942Z,1.90
2022-07-29T01:05:06.048Z,1.90
2022-07-29T01:07:34.868Z,1.80
2022-07-29T01:10:04.049Z,1.67
2022-07-29T01:12:31.880Z,1.60
2022-07-29T01:14:59.677Z,2.00
2022-07-29T01:17:57.077Z,1.95
2022-07-29T01:20:47.164Z,2.22
2022-07-29T01:23:40.852Z,2.00
2022-07-29T01:26:44.683Z,2.13
2022-07-29T01:29:44.674Z,3.83
2022-07-29T01:32:27.797Z,1.75
2022-07-29T01:37:30.581Z,1.63
2022-07-29T01:39:59.819Z,1.85
2022-07-29T01:42:43.055Z,1.92
2022-07-29T01:45:11.898Z,2.08
2022-07-29T01:47:44.337Z,1.65
2022-07-29T01:50:15.515Z,2.10
2022-07-29T01:52:47.724Z,2.03
2022-07-29T01:55:17.118Z,1.90
2022-07-29T01:57:48.387Z,2.13
2022-07-29T02:00:16.305Z,2.40
2022-07-29T02:02:45.104Z,2.58
2022-07-29T02:05:15.566Z,2.55
2022-07-29T02:07:45.225Z,2.03
2022-07-29T02:10:15.273Z,1.88
2022-07-29T02:12:44.099Z,2.45
2022-07-29T02:15:17.928Z,1.80
2022-07-29T02:17:57.012Z,2.05
2022-07-29T02:20:27.017Z,1.90
2022-07-29T02:22:55.612Z,2.08
2022-07-29T02:25:23.378Z,1.90
2022-07-29T02:27:51.972Z,2.30
2022-07-29T02:30:22.595Z,2.63
2022-07-29T02:32:50.416Z,2.00
2022-07-29T02:35:17.742Z,1.95
2022-07-29T02:37:46.462Z,1.65
2022-07-29T02:40:16.168Z,2.00
2022-07-29T02:42:44.899Z,2.00
2022-07-29T02:45:11.719Z,2.30
2022-07-29T02:47:44.831Z,2.17
2022-07-29T02:50:14.510Z,2.00
2022-07-29T02:53:09.832Z,2.03
2022-07-29T02:55:47.237Z,2.10
2022-07-29T02:58:22.637Z,3.28
2022-07-29T03:00:51.643Z,2.10
2022-07-29T03:03:19.864Z,2.00
2022-07-29T03:05:46.538Z,2.22
2022-07-29T03:08:15.863Z,1.90
2022-07-29T03:10:45.127Z,2.35
2022-07-29T03:13:13.416Z,1.77
2022-07-29T03:15:40.559Z,2.28
2022-07-29T03:18:07.902Z,2.10
2022-07-29T03:20:34.704Z,1.90
2022-07-29T03:23:01.267Z,1.67
2022-07-29T03:25:27.851Z,1.90
2022-07-29T03:27:54.353Z,1.92
2022-07-29T03:30:22.349Z,2.17
2022-07-29T03:32:52.160Z,2.47
2022-07-29T03:35:20.189Z,2.63
2022-07-29T03:37:47.496Z,2.05
2022-07-29T03:40:22.712Z,1.90
2022-07-29T03:42:51.575Z,2.15
2022-07-29T03:45:20.497Z,1.90
2022-07-29T03:47:57.050Z,1.85
2022-07-29T03:50:26.862Z,2.50
2022-07-29T03:52:53.558Z,2.15
2022-07-29T03:55:20.428Z,1.95
2022-07-29T03:57:47.637Z,2.00
2022-07-29T04:00:14.986Z,1.88
2022-07-29T04:02:41.920Z,2.20
2022-07-29T04:05:13.710Z,2.15
2022-07-29T04:07:41.678Z,2.90
2022-07-29T04:10:08.583Z,2.20
2022-07-29T04:12:35.125Z,2.30
2022-07-29T04:15:03.609Z,2.30
2022-07-29T04:17:30.271Z,2.03
2022-07-29T04:19:56.791Z,1.92
2022-07-29T04:22:23.397Z,2.30
2022-07-29T04:24:51.978Z,2.38
2022-07-29T04:27:18.566Z,2.28
2022-07-29T04:29:56.320Z,2.30
2022-07-29T04:32:25.055Z,2.20
2022-07-29T04:34:52.266Z,2.88
2022-07-29T04:37:19.281Z,2.80
2022-07-29T04:39:45.789Z,2.33
2022-07-29T04:42:12.332Z,2.45
2022-07-29T04:44:43.218Z,2.13
2022-07-29T04:47:10.145Z,2.38
2022-07-29T04:49:39.360Z,3.13
2022-07-29T04:52:06.994Z,2.65
2022-07-29T04:54:33.691Z,2.33
2022-07-29T04:57:00.265Z,2.40
2022-07-29T04:59:26.772Z,2.65
2022-07-29T05:01:53.362Z,1.92
2022-07-29T05:04:20.662Z,2.38
2022-07-29T05:06:47.605Z,2.63
2022-07-29T05:09:14.123Z,2.25
2022-07-29T05:11:40.673Z,2.47
2022-07-29T05:14:07.187Z,3.00
2022-07-29T05:16:34.204Z,2.53
2022-07-29T05:19:00.760Z,2.30
2022-07-29T05:21:27.344Z,2.70
2022-07-29T05:23:53.840Z,2.60
2022-07-29T05:26:20.399Z,2.85
2022-07-29T05:28:47.013Z,2.70
2022-07-29T05:31:13.686Z,2.45
2022-07-29T05:33:40.234Z,2.38
2022-07-29T05:36:06.864Z,2.92
2022-07-29T05:38:34.333Z,2.50
2022-07-29T05:41:00.932Z,2.50
2022-07-29T05:43:29.064Z,2.50
2022-07-29T05:45:55.910Z,2.72
2022-07-29T05:48:22.468Z,2.50
2022-07-29T05:50:49.228Z,2.72
2022-07-29T05:53:19.378Z,2.08
2022-07-29T05:55:50.986Z,2.15
2022-07-29T05:58:18.926Z,3.05
2022-07-29T06:00:45.957Z,2.70
2022-07-29T06:03:12.717Z,2.20
2022-07-29T06:05:39.295Z,2.40
2022-07-29T06:08:06.165Z,2.10
2022-07-29T06:10:32.679Z,2.45
2022-07-29T06:12:59.263Z,2.50
2022-07-29T06:15:25.778Z,2.67
2022-07-29T06:17:59.353Z,2.30
2022-07-29T06:20:31.591Z,2.40
2022-07-29T06:22:59.031Z,1.95
2022-07-29T06:25:25.712Z,2.10
2022-07-29T06:27:52.257Z,2.60
2022-07-29T06:30:18.915Z,2.05
2022-07-29T06:32:45.469Z,2.28
2022-07-29T06:35:38.537Z,2.10
2022-07-29T06:37:59.785Z,2.78
2022-07-29T06:40:27.097Z,2.13
2022-07-29T06:42:53.654Z,2.13
2022-07-29T06:45:20.299Z,2.10
2022-07-29T06:47:46.851Z,2.47
2022-07-29T06:50:13.481Z,2.60
2022-07-29T06:52:40.133Z,2.40
2022-07-29T06:55:07.333Z,2.13
2022-07-29T06:57:33.979Z,3.15
2022-07-29T07:00:01.012Z,2.08
2022-07-29T07:02:27.654Z,2.33
2022-07-29T07:04:54.598Z,1.90
2022-07-29T07:07:21.178Z,2.50
2022-07-29T07:09:47.714Z,2.45
2022-07-29T07:12:14.329Z,2.08
2022-07-29T07:14:40.866Z,1.63
2022-07-29T07:17:07.472Z,2.05
2022-07-29T07:19:34.401Z,2.33
2022-07-29T07:22:00.945Z,1.90
2022-07-29T07:24:28.089Z,2.28
2022-07-29T07:26:54.659Z,1.80
2022-07-29T07:29:21.176Z,2.25
2022-07-29T07:31:47.823Z,2.28
2022-07-29T07:34:14.686Z,2.03
2022-07-29T07:36:41.521Z,2.55
2022-07-29T07:39:08.030Z,2.40
2022-07-29T07:41:34.633Z,1.90
2022-07-29T07:44:01.178Z,2.40
2022-07-29T07:46:27.712Z,2.65
2022-07-29T07:48:54.270Z,2.13
2022-07-29T07:51:20.941Z,2.20
2022-07-29T07:53:47.455Z,2.20
2022-07-29T07:56:14.009Z,2.30
2022-07-29T07:58:40.543Z,1.90
2022-07-29T08:01:07.325Z,2.20
2022-07-29T08:03:34.192Z,2.65
2022-07-29T08:06:00.746Z,2.22
2022-07-29T08:08:27.274Z,3.30
2022-07-29T08:10:53.869Z,2.05
2022-07-29T08:13:22.052Z,1.88
2022-07-29T08:15:48.778Z,1.80
2022-07-29T08:18:15.414Z,1.38
2022-07-29T08:20:41.979Z,1.55
2022-07-29T08:23:09.259Z,2.65
2022-07-29T08:25:38.762Z,2.78
2022-07-29T08:30:33.879Z,1.45
2022-07-29T08:33:00.791Z,1.83
2022-07-29T08:35:32.110Z,1.60
2022-07-29T08:38:01.513Z,1.45
2022-07-29T08:40:32.002Z,1.40
2022-07-29T08:43:00.070Z,1.55
2022-07-29T08:45:28.990Z,1.27
2022-07-29T08:47:56.305Z,1.40
2022-07-29T08:50:22.884Z,1.27
2022-07-29T08:52:50.924Z,1.55
2022-07-29T08:55:18.187Z,1.55
2022-07-29T08:57:51.977Z,1.70
2022-07-29T09:00:23.245Z,1.50
2022-07-29T09:02:57.006Z,1.65
2022-07-29T09:05:25.173Z,1.40
2022-07-29T09:07:52.316Z,1.40
2022-07-29T09:10:19.182Z,1.50
2022-07-29T09:12:45.810Z,1.20
2022-07-29T09:15:12.354Z,1.38
2022-07-29T09:17:49.475Z,1.40
2022-07-29T09:20:22.731Z,1.40
2022-07-29T09:22:50.261Z,1.52
2022-07-29T09:25:35.438Z,1.00
2022-07-29T09:28:09.912Z,2.38
2022-07-29T09:30:50.406Z,1.30
2022-07-29T09:33:17.021Z,1.10
2022-07-29T09:35:43.595Z,1.35
2022-07-29T09:38:23.760Z,1.83
2022-07-29T09:41:05.446Z,1.38
2022-07-29T09:43:33.293Z,1.30
2022-07-29T09:46:15.293Z,1.17
2022-07-29T09:48:42.012Z,1.25
2022-07-29T09:51:26.954Z,1.35
2022-07-29T09:54:22.934Z,1.45
2022-07-29T09:56:49.830Z,1.30
2022-07-29T09:59:16.755Z,1.08
2022-07-29T10:01:43.492Z,1.23
2022-07-29T10:04:10.424Z,1.60
2022-07-29T10:07:03.548Z,1.05
2022-07-29T10:09:31.239Z,1.35
2022-07-29T10:12:09.779Z,1.55
2022-07-29T10:14:36.768Z,1.33
2022-07-29T10:17:04.824Z,1.13
2022-07-29T10:19:32.590Z,1.00
2022-07-29T10:22:00.535Z,0.90
2022-07-29T10:24:28.741Z,0.95
2022-07-29T10:26:56.880Z,1.60
2022-07-29T10:29:24.147Z,1.67
2022-07-29T10:31:53.989Z,2.25
2022-07-29T10:34:37.703Z,1.00
2022-07-29T10:37:20.659Z,1.17
2022-07-29T10:40:05.833Z,0.80
2022-07-29T10:42:34.223Z,0.80
2022-07-29T10:45:04.393Z,1.00
2022-07-29T10:47:31.600Z,0.75
2022-07-29T10:50:01.863Z,0.90
2022-07-29T10:52:50.322Z,1.20
2022-07-29T10:55:33.689Z,0.95
2022-07-29T10:58:31.696Z,0.80
2022-07-29T11:00:58.294Z,0.93
2022-07-29T11:03:50.286Z,1.17
2022-07-29T11:09:34.843Z,0.80
2022-07-29T11:12:02.382Z,0.85
2022-07-29T11:14:58.714Z,0.85
2022-07-29T11:17:25.628Z,0.80
2022-07-29T11:20:31.273Z,0.93
2022-07-29T11:22:59.411Z,0.80
2022-07-29T11:25:42.927Z,1.00
2022-07-29T11:28:23.103Z,0.90
2022-07-29T11:30:53.936Z,0.95
2022-07-29T11:33:54.077Z,1.00
2022-07-29T11:36:28.392Z,0.80
2022-07-29T11:39:27.400Z,0.70
2022-07-29T11:42:28.499Z,0.82
2022-07-29T11:44:59.443Z,0.82
2022-07-29T11:47:47.815Z,0.80
2022-07-29T11:50:29.764Z,0.60
2022-07-29T11:52:56.532Z,0.77
2022-07-29T11:55:24.456Z,1.00
2022-07-29T11:58:03.883Z,0.90
2022-07-29T12:00:33.724Z,0.95
2022-07-29T12:03:04.730Z,0.95
2022-07-29T12:05:36.276Z,0.63
2022-07-29T12:08:14.780Z,1.10
2022-07-29T12:10:42.265Z,0.85
2022-07-29T12:13:09.831Z,0.90
2022-07-29T12:15:45.950Z,1.10
2022-07-29T12:18:24.403Z,0.88
2022-07-29T12:20:59.430Z,0.88
2022-07-29T12:23:35.142Z,1.20
2022-07-29T12:26:07.438Z,0.70
2022-07-29T12:28:38.606Z,0.90
2022-07-29T12:31:06.112Z,1.30
2022-07-29T12:33:35.484Z,0.90
2022-07-29T12:36:07.271Z,0.85
2022-07-29T12:38:36.269Z,1.15
2022-07-29T12:41:04.508Z,1.10
2022-07-29T12:43:31.707Z,0.95
2022-07-29T12:45:58.455Z,1.30
2022-07-29T12:48:35.413Z,1.02
2022-07-29T12:51:04.157Z,1.10
2022-07-29T12:53:31.602Z,1.08
2022-07-29T12:55:59.443Z,1.27
2022-07-29T12:58:31.201Z,1.30
2022-07-29T13:01:00.837Z,1.10
2022-07-29T13:03:27.669Z,1.33
2022-07-29T13:05:54.265Z,1.30
2022-07-29T13:08:22.221Z,0.98
2022-07-29T13:10:49.249Z,0.98
2022-07-29T13:13:16.665Z,1.02
2022-07-29T13:15:44.906Z,1.13
2022-07-29T13:18:32.156Z,1.17
2022-07-29T13:21:12.160Z,1.20
2022-07-29T13:23:38.959Z,1.30
2022-07-29T13:26:10.026Z,0.95
2022-07-29T13:28:36.564Z,1.10
2022-07-29T13:31:03.282Z,1.05
2022-07-29T13:33:30.021Z,1.13
2022-07-29T13:35:56.561Z,1.10
2022-07-29T13:38:23.233Z,1.85
2022-07-29T13:40:57.928Z,1.35
2022-07-29T13:43:24.445Z,1.17
2022-07-29T13:45:51.005Z,1.00
2022-07-29T13:48:17.545Z,1.33
2022-07-29T13:50:44.138Z,1.40
2022-07-29T13:53:10.656Z,1.15
2022-07-29T13:55:44.962Z,1.70
2022-07-29T13:58:11.559Z,1.13
2022-07-29T14:00:38.061Z,1.02
2022-07-29T14:03:04.593Z,1.40
2022-07-29T14:05:31.080Z,1.20
2022-07-29T14:07:57.633Z,1.00
2022-07-29T14:10:24.177Z,1.30
2022-07-29T14:12:50.740Z,1.15
2022-07-29T14:15:17.273Z,1.13
2022-07-29T14:17:43.839Z,1.20
2022-07-29T14:20:10.683Z,1.40
2022-07-29T14:22:42.363Z,1.20
2022-07-29T14:25:14.416Z,1.40
2022-07-29T14:27:42.800Z,1.30
2022-07-29T14:30:10.407Z,1.15
2022-07-29T14:32:37.063Z,1.30
2022-07-29T14:35:04.045Z,1.23
2022-07-29T14:37:39.374Z,1.13
2022-07-29T14:40:07.798Z,1.17
2022-07-29T14:42:34.320Z,1.40
2022-07-29T14:45:00.870Z,1.30
2022-07-29T14:47:27.465Z,1.30
2022-07-29T14:49:54.126Z,1.25
2022-07-29T14:52:20.626Z,1.23
2022-07-29T14:54:47.180Z,1.02
2022-07-29T14:57:13.682Z,1.23
2022-07-29T14:59:40.221Z,1.55
2022-07-29T15:02:06.759Z,1.40
2022-07-29T15:04:33.391Z,1.30
2022-07-29T15:06:59.888Z,1.10
2022-07-29T15:09:26.518Z,0.93
2022-07-29T15:11:53.089Z,1.23
2022-07-29T15:14:19.647Z,1.10
2022-07-29T15:16:47.873Z,1.30
2022-07-29T15:19:14.929Z,1.20
2022-07-29T15:21:48.537Z,1.20
2022-07-29T15:24:19.196Z,0.90
2022-07-29T15:26:46.136Z,1.60
2022-07-29T15:29:12.729Z,1.20
2022-07-29T15:31:39.388Z,1.08
2022-07-29T15:34:07.220Z,0.88
2022-07-29T15:39:21.848Z,1.20
2022-07-29T15:41:49.867Z,1.05
2022-07-29T15:44:16.513Z,0.90
2022-07-29T15:46:43.016Z,1.17
2022-07-29T15:49:09.648Z,1.30
2022-07-29T15:51:36.288Z,1.00
2022-07-29T15:54:04.453Z,1.15
2022-07-29T15:56:31.311Z,1.20
2022-07-29T15:58:58.067Z,1.23
2022-07-29T16:01:24.669Z,1.15
2022-07-29T16:03:51.287Z,1.33
2022-07-29T16:06:17.910Z,1.15
2022-07-29T16:08:44.764Z,1.42
2022-07-29T16:11:11.271Z,1.10
2022-07-29T16:13:37.873Z,1.60
2022-07-29T16:16:04.896Z,1.08
2022-07-29T16:18:31.498Z,1.02
2022-07-29T16:20:59.014Z,1.48
2022-07-29T16:23:25.580Z,1.17
2022-07-29T16:26:00.886Z,1.50
2022-07-29T16:28:28.897Z,1.17
2022-07-29T16:30:55.531Z,1.83
2022-07-29T16:33:22.067Z,6.10
2022-07-29T16:35:48.565Z,3.33
2022-07-29T16:38:15.552Z,3.50
2022-07-29T16:40:42.236Z,1.60
2022-07-29T16:43:08.899Z,1.10
2022-07-29T16:45:45.331Z,1.15
2022-07-29T16:48:14.516Z,1.20
2022-07-29T16:50:43.315Z,1.35
2022-07-29T16:53:10.354Z,1.10
2022-07-29T16:55:37.095Z,1.05
2022-07-29T16:58:03.702Z,1.30
2022-07-29T17:00:30.294Z,1.30
2022-07-29T17:02:56.923Z,1.27
2022-07-29T17:05:23.566Z,1.20
2022-07-29T17:07:50.098Z,1.20
2022-07-29T17:10:16.653Z,1.02
2022-07-29T17:12:43.197Z,1.25
2022-07-29T17:15:11.640Z,1.70
2022-07-29T17:17:55.272Z,1.27
2022-07-29T17:20:23.190Z,1.48
2022-07-29T17:22:49.928Z,1.10
2022-07-29T17:25:20.343Z,1.20
2022-07-29T17:27:48.965Z,0.98
2022-07-29T17:30:15.463Z,1.17
2022-07-29T17:32:42.020Z,0.95
2022-07-29T17:35:09.266Z,1.20
2022-07-29T17:37:35.816Z,1.00
2022-07-29T17:40:02.315Z,1.25
2022-07-29T17:42:28.853Z,1.35
2022-07-29T17:44:55.369Z,0.98
2022-07-29T17:47:21.852Z,1.27
2022-07-29T17:49:48.352Z,1.15
2022-07-29T17:52:14.899Z,1.17
2022-07-29T17:54:41.374Z,1.00
2022-07-29T17:57:07.892Z,1.13
2022-07-29T17:59:34.481Z,1.40
2022-07-29T18:02:01.119Z,1.17
2022-07-29T18:04:27.677Z,1.30
2022-07-29T18:06:54.250Z,1.20
2022-07-29T18:09:20.807Z,1.85
2022-07-29T18:11:47.858Z,1.50
2022-07-29T18:14:14.711Z,1.40
2022-07-29T18:16:41.326Z,1.30
2022-07-29T18:19:07.874Z,1.15
2022-07-29T18:21:43.350Z,1.83
2022-07-29T18:24:20.515Z,1.30
2022-07-29T18:26:47.105Z,1.48
2022-07-29T18:29:13.678Z,1.35
2022-07-29T18:31:40.184Z,1.20
2022-07-29T18:34:06.740Z,0.98
2022-07-29T18:36:33.229Z,1.63
2022-07-29T18:38:59.784Z,1.30
2022-07-29T18:41:26.309Z,1.27
2022-07-29T18:43:52.827Z,1.30
2022-07-29T18:46:21.334Z,1.70
2022-07-29T18:48:48.056Z,1.40
2022-07-29T18:51:14.613Z,1.38
2022-07-29T18:53:41.174Z,1.23
2022-07-29T18:56:07.705Z,1.08
2022-07-29T18:58:34.261Z,1.55
2022-07-29T19:01:00.853Z,1.45
2022-07-29T19:03:27.480Z,1.77
2022-07-29T19:05:53.988Z,1.30
2022-07-29T19:08:20.582Z,1.40
2022-07-29T19:10:47.135Z,1.58
2022-07-29T19:13:13.679Z,1.60
2022-07-29T19:15:40.220Z,1.40
2022-07-29T19:18:06.872Z,1.50
2022-07-29T19:20:33.486Z,1.30
2022-07-29T19:23:00.051Z,1.67
2022-07-29T19:25:26.617Z,1.50
2022-07-29T19:27:53.166Z,1.70
2022-07-29T19:30:19.847Z,1.70
2022-07-29T19:32:46.500Z,1.58
2022-07-29T19:35:13.240Z,2.20
2022-07-29T19:37:39.855Z,1.50
2022-07-29T19:40:07.224Z,1.40
2022-07-29T19:42:33.976Z,1.65
2022-07-29T19:45:00.571Z,1.20
2022-07-29T19:47:27.131Z,1.50
2022-07-29T19:49:53.629Z,3.30
2022-07-29T19:52:20.366Z,1.80
2022-07-29T19:54:46.893Z,2.83
2022-07-29T19:57:13.513Z,2.13
2022-07-29T19:59:40.820Z,1.88
2022-07-29T20:02:07.738Z,1.95
2022-07-29T20:04:34.314Z,1.65
2022-07-29T20:07:02.008Z,2.10
2022-07-29T20:09:28.976Z,1.60
2022-07-29T20:11:55.542Z,1.33
2022-07-29T20:14:22.559Z,1.98
2022-07-29T20:16:50.060Z,1.48
2022-07-29T20:19:17.389Z,1.70
2022-07-29T20:21:44.192Z,1.27
2022-07-29T20:24:11.015Z,1.70
2022-07-29T20:26:38.085Z,1.65
2022-07-29T20:29:04.632Z,1.88
2022-07-29T20:31:32.079Z,1.70
2022-07-29T20:33:59.031Z,1.45
2022-07-29T20:36:25.619Z,1.50
2022-07-29T20:38:52.168Z,1.80
2022-07-29T20:41:18.720Z,1.48
2022-07-29T20:43:45.306Z,1.40
2022-07-29T20:46:11.926Z,1.45
2022-07-29T20:48:38.641Z,1.63
2022-07-29T20:51:05.355Z,1.40
2022-07-29T20:53:31.979Z,1.52
2022-07-29T20:55:58.496Z,1.50
2022-07-29T20:58:25.067Z,1.55
2022-07-29T21:00:51.616Z,1.60
2022-07-29T21:03:18.179Z,1.98
2022-07-29T21:05:44.861Z,2.15
2022-07-29T21:08:11.497Z,1.48
2022-07-29T21:10:38.102Z,1.30
2022-07-29T21:13:04.625Z,1.50
2022-07-29T21:15:31.391Z,1.40
2022-07-29T21:17:58.267Z,1.48
2022-07-29T21:20:24.806Z,2.65
2022-07-29T21:22:51.318Z,1.75
2022-07-29T21:25:17.867Z,1.60
2022-07-29T21:27:44.378Z,1.35
2022-07-29T21:30:11.118Z,1.60
2022-07-29T21:32:37.657Z,1.60
2022-07-29T21:35:15.173Z,1.52
2022-07-29T21:37:51.442Z,1.38
2022-07-29T21:40:17.984Z,1.67
2022-07-29T21:42:44.550Z,1.90
2022-07-29T21:45:12.553Z,1.48
2022-07-29T21:47:39.545Z,1.70
2022-07-29T21:50:06.530Z,1.40
2022-07-29T21:52:33.117Z,1.65
2022-07-29T21:54:59.682Z,1.10
2022-07-29T21:57:26.213Z,1.40
2022-07-29T21:59:52.969Z,1.40
2022-07-29T22:02:19.520Z,1.40
2022-07-29T22:04:46.103Z,1.58
2022-07-29T22:07:12.739Z,1.50
2022-07-29T22:09:39.248Z,1.13
2022-07-29T22:12:06.122Z,1.83
2022-07-29T22:14:32.648Z,1.40
2022-07-29T22:16:59.670Z,1.65
2022-07-29T22:19:27.676Z,2.05
2022-07-29T22:21:56.484Z,1.45
2022-07-29T22:24:22.986Z,1.20
2022-07-29T22:26:49.533Z,1.77
2022-07-29T22:29:16.076Z,1.80
2022-07-29T22:31:42.614Z,1.83
2022-07-29T22:34:09.234Z,1.67
2022-07-29T22:36:35.770Z,1.42
2022-07-29T22:39:02.278Z,1.80
2022-07-29T22:41:28.806Z,1.40
2022-07-29T22:43:55.415Z,1.60
2022-07-29T22:46:22.348Z,1.38
2022-07-29T22:48:48.919Z,1.38
2022-07-29T22:51:15.493Z,1.60
2022-07-29T22:53:41.997Z,1.27
2022-07-29T22:56:08.577Z,1.80
2022-07-29T22:58:35.101Z,1.50
2022-07-29T23:01:01.673Z,1.83
2022-07-29T23:03:28.347Z,1.80
2022-07-29T23:05:54.942Z,1.90
2022-07-29T23:08:21.492Z,1.50
2022-07-29T23:10:48.080Z,1.60
2022-07-29T23:13:14.822Z,1.95
2022-07-29T23:15:41.691Z,1.92
2022-07-29T23:18:10.353Z,1.48
2022-07-29T23:20:36.945Z,1.98
2022-07-29T23:23:03.535Z,1.67
2022-07-29T23:25:30.152Z,1.35
2022-07-29T23:27:57.125Z,1.65
2022-07-29T23:30:23.935Z,1.15
2022-07-29T23:32:50.617Z,1.70
2022-07-29T23:35:17.140Z,1.83
2022-07-29T23:37:43.713Z,1.55
2022-07-29T23:40:14.449Z,1.70
2022-07-29T23:45:09.245Z,1.80
2022-07-29T23:47:35.833Z,1.50
2022-07-29T23:50:02.351Z,1.60
2022-07-29T23:52:28.890Z,1.63
2022-07-29T23:54:55.652Z,1.40
2022-07-29T23:57:42.195Z,2.10
